Time;durP1;ratioP1;P1;durP2;ratioP2;P2;SDS_P1;SDS_P2;PMS_P1;PMS_P2;Temp;Humidity;BMP_temperature;BMP_pressure;BME280_temperature;BME280_humidity;BME280_pressure;Samples;Min_cycle;Max_cycle;Signal;HPM_P1;HPM_P2
2021/09/01 00:01:15;;;;;;;6.85;3.10;;;;;;;16.60;100.00;98546.58;1731548;82;21462;-67
2021/09/01 00:03:42;;;;;;;15.38;3.33;;;;;;;16.50;100.00;98540.73;1730340;82;20896;-67
2021/09/01 00:06:10;;;;;;;6.92;3.40;;;;;;;16.50;100.00;98540.73;1712211;83;21148;-66
2021/09/01 00:08:39;;;;;;;4.45;2.67;;;;;;;16.46;100.00;98541.78;1722830;81;20956;-66
2021/09/01 00:11:07;;;;;;;5.22;3.10;;;;;;;16.44;100.00;98543.63;1690363;82;20903;-67
2021/09/01 00:13:35;;;;;;;12.73;4.10;;;;;;;16.44;100.00;98540.11;1725300;82;20877;-68
2021/09/01 00:16:03;;;;;;;7.62;3.20;;;;;;;16.43;100.00;98543.69;1734258;82;20910;-68
2021/09/01 00:18:31;;;;;;;5.78;3.10;;;;;;;16.42;100.00;98545.48;1737918;81;21124;-66
2021/09/01 00:20:59;;;;;;;7.20;3.80;;;;;;;16.38;100.00;98542.55;1748607;82;20915;-67
2021/09/01 00:23:27;;;;;;;7.90;3.55;;;;;;;16.32;100.00;98535.67;1716355;83;21070;-66
2021/09/01 00:25:55;;;;;;;7.00;3.30;;;;;;;16.31;100.00;98535.73;1713124;82;21074;-67
2021/09/01 00:28:23;;;;;;;6.12;3.25;;;;;;;16.31;100.00;98525.08;1735256;82;20985;-66
2021/09/01 00:30:51;;;;;;;8.05;3.50;;;;;;;16.30;100.00;98524.67;1702490;82;21228;-67
2021/09/01 00:33:19;;;;;;;10.82;3.75;;;;;;;16.30;100.00;98524.67;1723506;83;20896;-66
2021/09/01 00:35:47;;;;;;;6.25;3.30;;;;;;;16.27;100.00;98531.45;1728158;83;20953;-66
2021/09/01 00:38:14;;;;;;;10.50;3.40;;;;;;;16.27;100.00;98531.45;1751203;82;20919;-67
2021/09/01 00:40:43;;;;;;;6.40;3.52;;;;;;;16.19;100.00;98525.09;1737842;82;21471;-66
2021/09/01 00:43:11;;;;;;;7.65;3.20;;;;;;;16.19;100.00;98525.09;1721899;82;21157;-66
2021/09/01 00:45:45;;;;;;;6.97;3.30;;;;;;;16.22;100.00;98519.66;1715979;82;20931;-67
2021/09/01 00:48:16;;;;;;;7.55;3.67;;;;;;;16.21;100.00;98513.92;1718606;82;20995;-66
2021/09/01 00:50:52;;;;;;;7.00;3.20;;;;;;;16.18;100.00;98511.39;1725942;83;20966;-67
2021/09/01 00:53:21;;;;;;;6.67;3.20;;;;;;;16.15;100.00;98514.17;1722624;82;21053;-68
2021/09/01 00:55:50;;;;;;;9.88;3.27;;;;;;;16.13;100.00;98509.83;1711824;82;21080;-68
2021/09/01 00:58:20;;;;;;;6.37;3.45;;;;;;;16.10;100.00;98518.80;1725504;82;20890;-68
2021/09/01 01:03:37;;;;;;;9.70;3.75;;;;;;;16.07;100.00;98518.88;1714063;82;21470;-67
2021/09/01 01:06:05;;;;;;;5.62;3.17;;;;;;;16.04;100.00;98521.20;1735804;81;21423;-67
2021/09/01 01:08:33;;;;;;;15.10;3.27;;;;;;;15.97;100.00;98507.73;1738846;82;21088;-69
2021/09/01 01:11:02;;;;;;;8.30;3.42;;;;;;;15.97;100.00;98507.73;1717931;82;20932;-69
2021/09/01 01:13:30;;;;;;;4.47;3.37;;;;;;;15.96;100.00;98511.31;1722250;82;21097;-68
2021/09/01 01:15:58;;;;;;;4.50;3.40;;;;;;;15.96;100.00;98505.13;1726107;82;21113;-68
2021/09/01 01:18:27;;;;;;;5.12;3.47;;;;;;;15.95;100.00;98508.25;1734516;82;20883;-70
2021/09/01 01:20:55;;;;;;;6.08;3.55;;;;;;;15.94;100.00;98505.19;1729259;81;21132;-67
2021/09/01 01:23:24;;;;;;;4.72;3.70;;;;;;;15.91;100.00;98502.64;1724798;81;20953;-67
2021/09/01 01:25:51;;;;;;;6.20;2.98;;;;;;;15.87;100.00;98499.70;1738803;81;20977;-68
2021/09/01 01:28:19;;;;;;;5.37;2.90;;;;;;;15.86;100.00;98494.44;1744659;82;20934;-68
2021/09/01 01:30:47;;;;;;;4.85;3.15;;;;;;;15.86;100.00;98483.33;1730037;82;20923;-68
2021/09/01 01:33:15;;;;;;;12.98;3.17;;;;;;;15.83;100.00;98481.25;1699941;82;21432;-67
2021/09/01 01:35:45;;;;;;;4.42;2.85;;;;;;;15.80;100.00;98486.69;1686573;82;21471;-67
2021/09/01 01:38:16;;;;;;;6.42;2.70;;;;;;;15.74;100.00;98475.82;1700573;82;20899;-67
2021/09/01 01:40:47;;;;;;;7.37;3.12;;;;;;;15.69;100.00;98474.66;1717389;82;21470;-67
2021/09/01 01:43:17;;;;;;;5.42;2.80;;;;;;;15.64;100.00;98476.63;1711986;83;21427;-67
2021/09/01 01:45:46;;;;;;;6.97;2.47;;;;;;;15.62;100.00;98477.15;1717622;82;21154;-68
2021/09/01 01:48:15;;;;;;;9.60;3.02;;;;;;;15.62;100.00;98477.61;1739832;81;20940;-68
2021/09/01 01:50:44;;;;;;;8.18;3.33;;;;;;;15.61;100.00;98477.20;1735855;82;21476;-68
2021/09/01 01:53:12;;;;;;;10.72;3.58;;;;;;;15.60;100.00;98476.30;1717757;81;21439;-70
2021/09/01 01:55:42;;;;;;;9.55;3.87;;;;;;;15.60;100.00;98474.11;1684504;84;20880;-67
2021/09/01 01:58:10;;;;;;;9.23;4.17;;;;;;;15.59;100.00;98465.73;1684541;83;21139;-67
2021/09/01 02:00:38;;;;;;;6.78;3.50;;;;;;;15.59;100.00;98467.05;1686914;83;20860;-67
2021/09/01 02:03:06;;;;;;;11.28;3.50;;;;;;;15.61;100.00;98463.45;1727685;82;20997;-67
2021/09/01 02:05:36;;;;;;;7.78;4.00;;;;;;;15.62;100.00;98461.20;1729717;82;21498;-67
2021/09/01 02:08:05;;;;;;;13.40;3.70;;;;;;;15.62;100.00;98459.87;1734510;82;21107;-68
2021/09/01 02:10:33;;;;;;;11.53;3.98;;;;;;;15.63;100.00;98462.94;1747446;81;21554;-68
2021/09/01 02:13:01;;;;;;;8.03;3.50;;;;;;;15.62;100.00;98457.20;1724420;81;20941;-68
2021/09/01 02:15:32;;;;;;;9.68;4.05;;;;;;;15.63;100.00;98461.60;1745205;81;21496;-68
2021/09/01 02:18:01;;;;;;;13.85;4.12;;;;;;;15.61;100.00;98455.94;1722767;81;21051;-68
2021/09/01 02:20:31;;;;;;;13.15;4.33;;;;;;;15.56;100.00;98462.69;1711698;82;21500;-67
2021/09/01 02:25:49;;;;;;;10.53;3.70;;;;;;;15.44;100.00;98455.17;1692268;84;20979;-67
2021/09/01 02:28:19;;;;;;;6.80;3.25;;;;;;;15.40;100.00;98450.89;1650781;86;21523;-67
2021/09/01 02:30:49;;;;;;;4.85;3.10;;;;;;;15.36;100.00;98448.80;1627471;87;21434;-67
2021/09/01 02:33:18;;;;;;;6.45;3.30;;;;;;;15.37;100.00;98445.69;1686379;85;21431;-68
2021/09/01 02:35:50;;;;;;;4.72;3.20;;;;;;;15.34;100.00;98450.66;1684708;85;21450;-72
2021/09/01 02:38:18;;;;;;;8.63;3.30;;;;;;;15.34;100.00;98447.13;1683271;85;21473;-71
2021/09/01 02:40:47;;;;;;;4.45;3.12;;;;;;;15.30;100.00;98461.45;1661913;85;21046;-70
2021/09/01 02:43:16;;;;;;;5.70;3.55;;;;;;;15.24;100.00;98454.56;1655331;85;21548;-69
2021/09/01 02:45:45;;;;;;;8.38;3.60;;;;;;;15.19;100.00;98457.85;1673428;84;21466;-69
2021/09/01 02:48:15;;;;;;;18.48;3.35;;;;;;;15.14;100.00;98454.48;1688958;84;20976;-69
2021/09/01 02:50:44;;;;;;;9.63;3.27;;;;;;;15.13;100.00;98455.38;1689370;84;21019;-62
2021/09/01 02:53:13;;;;;;;2.87;2.50;;;;;;;15.07;100.00;98454.27;1690777;84;20955;-63
2021/09/01 02:55:41;;;;;;;8.13;2.40;;;;;;;15.00;100.00;98452.75;1654164;86;21510;-63
2021/09/01 02:58:10;;;;;;;5.47;2.00;;;;;;;14.90;100.00;98447.36;1658557;86;21614;-64
2021/09/01 03:00:39;;;;;;;3.58;2.20;;;;;;;14.82;100.00;98448.08;1659608;86;21166;-63
2021/09/01 03:03:07;;;;;;;1.72;1.60;;;;;;;14.79;100.00;98447.27;1660194;86;20995;-62
2021/09/01 03:05:37;;;;;;;2.83;1.72;;;;;;;14.79;100.00;98445.94;1654052;86;20969;-63
2021/09/01 03:08:06;;;;;;;2.00;1.80;;;;;;;14.80;100.00;98449.00;1658094;85;21046;-62
2021/09/01 03:10:36;;;;;;;7.78;2.47;;;;;;;14.79;100.00;98454.36;1656714;86;21519;-62
2021/09/01 03:13:08;;;;;;;3.40;2.17;;;;;;;14.78;100.00;98448.64;1669841;85;21518;-59
2021/09/01 03:15:39;;;;;;;8.80;3.20;;;;;;;14.78;100.00;98449.97;1671678;85;21517;-61
2021/09/01 03:18:07;;;;;;;7.85;2.87;;;;;;;14.78;100.00;98448.19;1678880;85;20995;-62
2021/09/01 03:20:36;;;;;;;7.37;3.17;;;;;;;14.80;100.00;98448.13;1679073;85;21557;-63
2021/09/01 03:23:04;;;;;;;7.47;4.20;;;;;;;14.82;100.00;98450.28;1659142;85;21014;-63
2021/09/01 03:25:33;;;;;;;9.65;4.03;;;;;;;14.82;100.00;98446.75;1634038;87;22195;-63
2021/09/01 03:28:01;;;;;;;7.17;4.30;;;;;;;14.80;100.00;98445.02;1672266;85;20868;-63
2021/09/01 03:30:29;;;;;;;6.15;3.40;;;;;;;14.80;100.00;98444.15;1659693;85;21078;-63
2021/09/01 03:32:57;;;;;;;4.17;3.72;;;;;;;14.81;100.00;98452.52;1664521;85;21513;-64
2021/09/01 03:35:25;;;;;;;8.20;3.60;;;;;;;14.82;100.00;98443.64;1624998;88;20971;-65
2021/09/01 03:37:54;;;;;;;4.50;3.67;;;;;;;14.85;100.00;98445.31;1664721;86;21132;-69
2021/09/01 03:40:22;;;;;;;5.83;3.95;;;;;;;14.88;100.00;98438.11;1676477;84;20907;-69
2021/09/01 03:42:50;;;;;;;8.60;3.90;;;;;;;14.90;100.00;98442.91;1688028;85;20944;-64
2021/09/01 03:45:18;;;;;;;10.70;3.83;;;;;;;14.87;100.00;98435.05;1685619;84;21503;-66
2021/09/01 03:47:47;;;;;;;9.48;4.55;;;;;;;14.87;100.00;98432.40;1685544;85;21003;-65
2021/09/01 03:50:26;;;;;;;10.60;4.22;;;;;;;14.88;100.00;98439.44;1654335;86;20881;-70
2021/09/01 03:52:56;;;;;;;7.67;4.00;;;;;;;14.89;100.00;98443.83;1654576;86;20973;-70
2021/09/01 03:55:24;;;;;;;8.20;4.45;;;;;;;14.90;100.00;98441.59;1660101;86;21069;-70
2021/09/01 03:57:54;;;;;;;9.35;4.75;;;;;;;14.83;100.00;98439.20;1626362;87;21513;-70
2021/09/01 04:00:22;;;;;;;7.22;4.92;;;;;;;14.77;100.00;98438.95;1660541;86;21550;-70
2021/09/01 04:02:50;;;;;;;6.30;5.37;;;;;;;14.71;100.00;98438.70;1653570;86;21149;-69
2021/09/01 04:05:19;;;;;;;7.65;4.87;;;;;;;14.63;100.00;98445.16;1653970;86;21462;-70
2021/09/01 04:07:49;;;;;;;11.63;5.17;;;;;;;14.57;100.00;98449.34;1653962;85;21505;-69
2021/09/01 04:10:17;;;;;;;7.62;5.28;;;;;;;14.57;100.00;98454.19;1654078;86;21026;-70
2021/09/01 04:12:45;;;;;;;8.20;5.28;;;;;;;14.57;100.00;98454.65;1654682;86;21530;-69
2021/09/01 04:15:14;;;;;;;6.62;4.47;;;;;;;14.55;100.00;98467.97;1654664;85;22056;-70
2021/09/01 04:17:44;;;;;;;11.83;5.03;;;;;;;14.54;100.00;98468.89;1654713;86;20946;-70
2021/09/01 04:20:13;;;;;;;8.68;4.85;;;;;;;14.53;100.00;98478.23;1653928;86;21026;-70
2021/09/01 04:22:41;;;;;;;10.65;4.28;;;;;;;14.50;100.00;98465.92;1654715;85;20915;-70
2021/09/01 04:25:12;;;;;;;8.53;4.65;;;;;;;14.50;100.00;98471.23;1657120;84;21411;-71
2021/09/01 04:27:41;;;;;;;6.92;4.40;;;;;;;14.50;100.00;98473.89;1661335;85;21202;-70
2021/09/01 04:30:10;;;;;;;6.72;4.70;;;;;;;14.48;100.00;98472.61;1661207;85;20899;-70
2021/09/01 04:32:39;;;;;;;11.45;4.70;;;;;;;14.49;100.00;98469.50;1661186;85;21414;-70
2021/09/01 04:35:08;;;;;;;8.50;4.30;;;;;;;14.51;100.00;98466.34;1661290;86;20951;-71
2021/09/01 04:37:38;;;;;;;9.45;5.03;;;;;;;14.55;100.00;98465.31;1661289;86;21428;-71
2021/09/01 04:40:09;;;;;;;11.08;4.70;;;;;;;14.59;100.00;98456.33;1661613;85;21144;-71
2021/09/01 04:42:37;;;;;;;9.03;4.90;;;;;;;14.65;100.00;98458.78;1661248;85;20927;-70
2021/09/01 04:45:09;;;;;;;6.87;4.47;;;;;;;14.73;100.00;98461.21;1661446;86;20914;-71
2021/09/01 04:47:36;;;;;;;7.65;4.40;;;;;;;14.80;100.00;98460.08;1661482;85;20903;-70
2021/09/01 04:50:08;;;;;;;8.08;4.30;;;;;;;14.91;100.00;98459.71;1661328;85;20987;-70
2021/09/01 04:52:36;;;;;;;6.50;4.20;;;;;;;15.01;100.00;98457.14;1661112;85;21249;-70
2021/09/01 04:55:08;;;;;;;7.50;4.65;;;;;;;15.09;100.00;98462.59;1661396;85;21006;-70
2021/09/01 04:57:37;;;;;;;6.00;4.25;;;;;;;15.15;100.00;98464.66;1656058;85;21401;-71
2021/09/01 05:00:10;;;;;;;6.72;3.83;;;;;;;15.18;100.00;98465.88;1661464;85;20887;-70
2021/09/01 05:02:39;;;;;;;8.58;4.58;;;;;;;15.21;100.00;98468.42;1661371;86;21438;-69
2021/09/01 05:05:08;;;;;;;4.60;4.20;;;;;;;15.25;100.00;98468.72;1661381;85;21118;-71
2021/09/01 05:07:37;;;;;;;5.20;4.05;;;;;;;15.29;100.00;98469.02;1661219;86;20995;-70
2021/09/01 05:10:06;;;;;;;8.18;3.77;;;;;;;15.29;100.00;98469.88;1661410;85;21488;-68
2021/09/01 05:12:34;;;;;;;10.25;3.75;;;;;;;15.29;100.00;98467.23;1661216;86;21033;-65
2021/09/01 05:15:03;;;;;;;5.28;4.30;;;;;;;15.33;100.00;98470.64;1661397;85;21042;-65
2021/09/01 05:17:31;;;;;;;4.80;4.20;;;;;;;15.35;100.00;98464.81;1661095;85;21180;-65
2021/09/01 05:19:59;;;;;;;10.43;4.03;;;;;;;15.34;100.00;98465.73;1660855;85;20879;-66
2021/09/01 05:22:29;;;;;;;9.08;4.45;;;;;;;15.35;100.00;98464.81;1659695;86;20966;-67
2021/09/01 05:25:07;;;;;;;7.90;4.03;;;;;;;15.35;100.00;98459.03;1660615;85;21511;-67
2021/09/01 05:27:36;;;;;;;5.75;4.05;;;;;;;15.39;100.00;98455.80;1660751;85;20983;-64
2021/09/01 05:30:08;;;;;;;5.75;4.42;;;;;;;15.45;100.00;98459.56;1661129;85;21497;-66
2021/09/01 05:32:37;;;;;;;5.95;4.78;;;;;;;15.51;100.00;98465.11;1661153;85;20995;-66
2021/09/01 05:35:06;;;;;;;7.37;4.40;;;;;;;15.58;100.00;98460.87;1661106;85;20964;-67
2021/09/01 05:37:34;;;;;;;8.63;4.30;;;;;;;15.71;100.00;98461.31;1661124;85;20951;-67
2021/09/01 05:40:03;;;;;;;4.70;4.03;;;;;;;15.82;100.00;98459.11;1661141;85;21440;-66
2021/09/01 05:42:31;;;;;;;7.30;4.30;;;;;;;15.95;100.00;98464.36;1661182;86;21151;-67
2021/09/01 05:45:01;;;;;;;4.75;4.20;;;;;;;16.04;100.00;98456.48;1661596;86;20936;-67
2021/09/01 05:47:29;;;;;;;5.83;4.78;;;;;;;16.17;100.00;98456.44;1661178;86;21459;-67
2021/09/01 05:49:58;;;;;;;4.95;4.20;;;;;;;16.17;100.00;98456.44;1661186;85;21026;-67
2021/09/01 05:52:27;;;;;;;5.65;4.00;;;;;;;16.33;100.00;98453.56;1660728;86;20985;-67
2021/09/01 05:54:58;;;;;;;7.42;4.20;;;;;;;16.33;100.00;98453.56;1660409;86;21351;-67
2021/09/01 05:57:37;;;;;;;7.37;4.00;;;;;;;16.42;100.00;98447.00;1661366;85;21128;-67
2021/09/01 06:00:12;;;;;;;5.50;4.92;;;;;;;16.52;100.00;98452.81;1661246;86;20989;-67
2021/09/01 06:02:58;;;;;;;6.10;4.45;;;;;;;16.67;100.00;98446.91;1661230;86;20939;-68
2021/09/01 06:05:26;;;;;;;5.25;4.40;;;;;;;16.67;100.00;98446.91;1655859;85;21154;-67
2021/09/01 06:07:59;;;;;;;8.03;4.67;;;;;;;16.78;100.00;98438.47;1609295;86;21154;-68
2021/09/01 06:10:32;;;;;;;6.28;4.22;;;;;;;16.89;100.00;98436.21;1661248;85;20946;-68
2021/09/01 06:13:09;;;;;;;4.65;4.17;;;;;;;17.02;100.00;98442.74;1661476;85;20998;-67
2021/09/01 06:15:40;;;;;;;6.40;3.85;;;;;;;17.10;100.00;98439.31;1660661;85;21032;-67
2021/09/01 06:18:08;;;;;;;4.92;3.85;;;;;;;17.14;100.00;98429.38;1661389;85;20944;-68
2021/09/01 06:20:38;;;;;;;4.00;3.70;;;;;;;17.24;100.00;98434.70;1661189;86;21172;-67
2021/09/01 06:23:07;;;;;;;3.92;3.27;;;;;;;17.33;100.00;98439.63;1661066;85;21005;-67
2021/09/01 06:25:37;;;;;;;5.28;2.80;;;;;;;17.43;100.00;98440.08;1659402;85;20911;-68
2021/09/01 06:28:08;;;;;;;4.03;2.98;;;;;;;17.55;100.00;98440.41;1657046;86;20907;-67
2021/09/01 06:30:37;;;;;;;3.20;2.85;;;;;;;17.71;100.00;98432.61;1656169;85;21491;-67
2021/09/01 06:33:05;;;;;;;4.12;2.98;;;;;;;17.88;100.00;98438.48;1656411;86;21417;-67
2021/09/01 06:35:33;;;;;;;4.78;2.65;;;;;;;18.03;100.00;98439.60;1655758;85;21237;-67
2021/09/01 06:38:02;;;;;;;3.33;2.80;;;;;;;18.17;100.00;98438.00;1655430;86;21617;-67
2021/09/01 06:40:32;;;;;;;4.75;2.98;;;;;;;18.32;100.00;98435.05;1656708;85;21182;-68
2021/09/01 06:43:01;;;;;;;4.87;3.15;;;;;;;18.47;100.00;98436.14;1630001;86;21537;-67
2021/09/01 06:45:30;;;;;;;4.12;2.90;;;;;;;18.62;100.00;98425.20;1644290;87;21164;-67
2021/09/01 06:47:58;;;;;;;3.35;3.00;;;;;;;18.71;100.00;98422.92;1646043;87;20935;-67
2021/09/01 06:50:28;;;;;;;7.50;3.65;;;;;;;18.80;100.00;98415.78;1656473;86;21008;-67
2021/09/01 06:52:56;;;;;;;5.37;3.50;;;;;;;18.87;100.00;98405.17;1688678;85;21038;-67
2021/09/01 06:55:24;;;;;;;3.65;3.00;;;;;;;18.98;100.00;98406.45;1682066;84;21003;-67
2021/09/01 06:57:52;;;;;;;5.22;2.98;;;;;;;19.10;100.00;98403.14;1681149;85;21110;-67
2021/09/01 07:00:20;;;;;;;3.35;3.05;;;;;;;19.24;100.00;98403.74;1681889;85;21055;-67
2021/09/01 07:02:48;;;;;;;7.47;2.92;;;;;;;19.34;100.00;98397.82;1681322;85;20872;-67
2021/09/01 07:05:18;;;;;;;5.10;3.10;;;;;;;19.48;100.00;98399.31;1681555;85;21008;-67
2021/09/01 07:07:46;;;;;;;5.40;2.70;;;;;;;19.60;100.00;98399.63;1681452;85;20997;-65
2021/09/01 07:10:14;;;;;;;4.72;3.33;;;;;;;19.71;100.00;98403.91;1681567;85;21184;-64
2021/09/01 07:12:42;;;;;;;4.60;2.83;;;;;;;19.83;100.00;98408.59;1681624;85;21451;-66
2021/09/01 07:15:10;;;;;;;7.53;3.25;;;;;;;19.94;100.00;98403.53;1680638;85;21066;-64
2021/09/01 07:17:39;;;;;;;3.47;2.70;;;;;;;20.05;100.00;98402.45;1681388;85;21451;-65
2021/09/01 07:20:09;;;;;;;2.25;1.90;;;;;;;20.16;100.00;98405.00;1681256;85;21127;-64
2021/09/01 07:22:36;;;;;;;3.95;2.00;;;;;;;20.24;100.00;98398.73;1679550;85;21132;-65
2021/09/01 07:25:05;;;;;;;3.05;1.85;;;;;;;20.36;100.00;98400.73;1681013;85;21018;-67
2021/09/01 07:27:33;;;;;;;2.87;2.27;;;;;;;20.46;100.00;98391.73;1692809;84;21576;-65
2021/09/01 07:30:04;;;;;;;2.72;1.60;;;;;;;20.55;100.00;98396.06;1693189;84;21427;-65
2021/09/01 07:32:32;;;;;;;5.58;1.42;;;;;;;20.60;100.00;98388.62;1693381;84;20856;-66
2021/09/01 07:35:00;;;;;;;1.52;1.42;;;;;;;20.63;100.00;98388.44;1693085;84;21156;-65
2021/09/01 07:37:28;;;;;;;3.02;2.27;;;;;;;20.69;100.00;98382.72;1693307;84;20856;-62
2021/09/01 07:39:57;;;;;;;2.80;2.00;;;;;;;20.79;100.00;98375.47;1658903;85;20991;-63
2021/09/01 07:42:25;;;;;;;1.85;1.30;;;;;;;20.86;100.00;98372.84;1655236;86;21046;-64
2021/09/01 07:44:53;;;;;;;3.77;1.20;;;;;;;20.92;100.00;98371.99;1658656;86;21028;-63
2021/09/01 07:47:21;;;;;;;0.90;0.90;;;;;;;20.99;100.00;98380.05;1661428;85;21133;-64
2021/09/01 07:49:49;;;;;;;1.98;1.00;;;;;;;21.01;100.00;98379.95;1665748;85;20951;-63
2021/09/01 07:52:17;;;;;;;2.02;1.10;;;;;;;21.05;100.00;98386.38;1664079;85;21047;-63
2021/09/01 07:54:45;;;;;;;2.77;1.20;;;;;;;21.11;100.00;98378.91;1666382;84;20951;-62
2021/09/01 07:57:12;;;;;;;1.25;1.00;;;;;;;21.21;100.00;98379.59;1667139;85;20924;-62
2021/09/01 07:59:41;;;;;;;1.10;1.00;;;;;;;21.31;100.00;98383.98;1664727;84;21526;-62
2021/09/01 08:02:10;;;;;;;1.45;1.20;;;;;;;21.42;100.00;98384.66;1664738;84;20971;-63
2021/09/01 08:04:37;;;;;;;9.83;4.87;;;;;;;21.50;100.00;98376.98;1664714;84;21188;-63
2021/09/01 08:07:05;;;;;;;1.87;1.72;;;;;;;21.64;100.00;98383.69;1664933;84;20931;-61
2021/09/01 08:09:34;;;;;;;1.50;1.40;;;;;;;21.83;100.00;98380.73;1664649;84;21093;-63
2021/09/01 08:12:04;;;;;;;1.47;1.05;;;;;;;21.98;100.00;98378.40;1679043;85;21154;-63
2021/09/01 08:14:36;;;;;;;1.30;1.20;;;;;;;22.19;100.00;98381.55;1645439;86;21012;-63
2021/09/01 08:17:04;;;;;;;1.35;0.85;;;;;;;22.40;100.00;98380.16;1649039;86;21571;-63
2021/09/01 08:19:33;;;;;;;0.70;0.70;;;;;;;22.49;100.00;98370.14;1664682;84;20931;-64
2021/09/01 08:22:01;;;;;;;1.32;0.90;;;;;;;22.60;100.00;98374.31;1664789;84;20919;-64
2021/09/01 08:24:29;;;;;;;1.10;1.00;;;;;;;22.74;100.00;98361.31;1664601;84;21139;-64
2021/09/01 08:26:59;;;;;;;1.72;1.25;;;;;;;22.89;100.00;98355.40;1664765;84;21500;-64
2021/09/01 08:29:26;;;;;;;1.20;1.10;;;;;;;23.04;100.00;98361.06;1664541;84;21108;-63
2021/09/01 08:31:55;;;;;;;2.42;0.90;;;;;;;23.18;100.00;98363.69;1664664;84;21549;-63
2021/09/01 08:34:23;;;;;;;1.40;1.10;;;;;;;23.32;100.00;98372.62;1664753;84;21057;-64
2021/09/01 08:37:04;;;;;;;2.22;1.02;;;;;;;23.45;100.00;98368.09;1664710;84;21169;-63
2021/09/01 08:39:36;;;;;;;;;;;;;;;23.57;100.00;98369.08;1667087;86;21562;-64
2021/09/01 08:42:10;;;;;;;1.27;1.17;;;;;;;23.69;100.00;98377.66;1698720;84;20462;-63
2021/09/01 08:44:39;;;;;;;1.62;1.10;;;;;;;23.74;100.00;98373.66;1671836;84;21392;-64
2021/09/01 08:47:07;;;;;;;2.25;1.00;;;;;;;23.73;100.00;98378.67;1648650;85;21075;-64
2021/09/01 08:49:36;;;;;;;1.27;1.05;;;;;;;23.64;100.00;98373.91;1658205;85;21153;-63
2021/09/01 08:52:05;;;;;;;2.87;1.25;;;;;;;23.61;100.00;98366.54;1657220;86;21007;-64
2021/09/01 08:54:34;;;;;;;4.00;1.00;;;;;;;23.59;100.00;98369.83;1657528;86;21022;-64
2021/09/01 08:57:03;;;;;;;1.65;1.25;;;;;;;23.53;100.00;98373.78;1657280;86;20919;-64
2021/09/01 08:59:31;;;;;;;1.20;0.90;;;;;;;23.48;100.00;98370.56;1657515;86;21041;-63
2021/09/01 09:01:59;;;;;;;2.60;1.00;;;;;;;23.36;100.00;98374.12;1628833;88;21190;-64
2021/09/01 09:04:29;;;;;;;1.55;0.78;;;;;;;23.20;97.71;98375.20;1657331;85;20911;-64
2021/09/01 09:07:01;;;;;;;0.80;0.63;;;;;;;23.01;98.16;98376.06;1629441;88;20940;-64
2021/09/01 09:09:37;;;;;;;1.52;0.93;;;;;;;22.80;95.50;98378.41;1630302;86;21001;-64
2021/09/01 09:12:07;;;;;;;0.98;0.80;;;;;;;22.60;96.85;98379.69;1657786;86;21517;-65
2021/09/01 09:14:49;;;;;;;1.62;0.80;;;;;;;22.42;97.20;98376.89;1657501;86;21160;-64
2021/09/01 09:17:20;;;;;;;0.90;0.80;;;;;;;22.30;99.10;98377.22;1657437;86;21077;-64
2021/09/01 09:19:51;;;;;;;0.82;0.78;;;;;;;22.19;100.00;98378.37;1655711;86;20994;-64
2021/09/01 09:22:28;;;;;;;2.83;0.80;;;;;;;22.06;100.00;98371.22;1662619;86;21099;-63
2021/09/01 09:25:21;;;;;;;0.80;0.80;;;;;;;21.97;100.00;98376.67;1656667;86;20952;-63
2021/09/01 09:27:59;;;;;;;1.10;1.00;;;;;;;21.93;100.00;98373.80;1697902;84;21542;-63
2021/09/01 09:30:30;;;;;;;0.82;0.80;;;;;;;21.89;100.00;98375.83;1643870;86;20916;-65
2021/09/01 09:33:12;;;;;;;2.47;1.00;;;;;;;21.89;100.00;98382.54;1658010;84;20984;-64
2021/09/01 09:35:59;;;;;;;2.05;0.88;;;;;;;21.86;100.00;98378.70;1679623;84;21510;-63
2021/09/01 09:38:45;;;;;;;2.58;0.90;;;;;;;21.86;100.00;98378.70;1691516;84;20895;-63
2021/09/01 09:41:24;;;;;;;0.80;0.80;;;;;;;21.79;100.00;98382.75;1692397;84;21118;-63
2021/09/01 09:43:58;;;;;;;1.85;0.80;;;;;;;21.68;100.00;98378.03;1665168;84;21454;-64
2021/09/01 09:46:25;;;;;;;1.12;1.02;;;;;;;21.67;100.00;98378.13;1665050;84;21509;-64
2021/09/01 09:48:53;;;;;;;1.15;0.90;;;;;;;21.68;100.00;98374.48;1664688;84;21529;-64
2021/09/01 09:51:42;;;;;;;1.10;0.80;;;;;;;21.73;100.00;98372.38;1664428;84;21055;-64
2021/09/01 09:54:20;;;;;;;2.47;0.95;;;;;;;21.77;100.00;98371.73;1663868;84;21144;-64
2021/09/01 09:56:48;;;;;;;2.50;1.12;;;;;;;21.76;100.00;98377.58;1663628;84;20983;-63
2021/09/01 09:59:21;;;;;;;1.17;1.07;;;;;;;21.71;100.00;98369.40;1663717;84;20923;-64
2021/09/01 10:01:50;;;;;;;2.37;1.22;;;;;;;21.64;100.00;98374.30;1664209;84;21461;-64
2021/09/01 10:04:18;;;;;;;1.50;1.05;;;;;;;21.58;100.00;98374.69;1664687;84;21010;-63
2021/09/01 10:06:47;;;;;;;4.25;1.35;;;;;;;21.53;100.00;98379.48;1664731;84;21003;-67
2021/09/01 10:09:16;;;;;;;2.47;1.42;;;;;;;21.47;100.00;98381.20;1664603;84;21490;-65
2021/09/01 10:11:47;;;;;;;1.87;1.75;;;;;;;21.48;100.00;98382.45;1664595;84;21010;-65
2021/09/01 10:14:22;;;;;;;1.85;1.60;;;;;;;21.50;100.00;98383.22;1664829;84;20990;-66
2021/09/01 10:17:00;;;;;;;2.12;1.60;;;;;;;21.49;100.00;98387.34;1664920;84;21120;-65
2021/09/01 10:19:30;;;;;;;3.35;1.60;;;;;;;21.45;100.00;98380.44;1664711;84;21213;-65
2021/09/01 10:22:01;;;;;;;1.72;1.37;;;;;;;21.48;100.00;98384.27;1664885;84;20947;-65
2021/09/01 10:24:35;;;;;;;2.20;1.70;;;;;;;21.58;100.00;98385.42;1664714;84;21012;-66
2021/09/01 10:27:19;;;;;;;1.65;1.30;;;;;;;21.70;100.00;98379.28;1657466;85;21576;-67
2021/09/01 10:29:59;;;;;;;2.58;1.22;;;;;;;21.86;100.00;98384.08;1643603;86;21020;-66
2021/09/01 10:32:42;;;;;;;1.85;1.20;;;;;;;21.98;100.00;98378.40;1645660;86;21179;-66
2021/09/01 10:35:18;;;;;;;1.60;1.20;;;;;;;22.12;100.00;98386.45;1647866;86;20960;-66
2021/09/01 10:37:54;;;;;;;3.47;1.15;;;;;;;22.22;100.00;98382.20;1647924;86;20967;-65
2021/09/01 10:40:29;;;;;;;1.32;1.10;;;;;;;22.29;100.00;98382.21;1647858;86;21012;-66
2021/09/01 10:43:04;;;;;;;1.95;1.00;;;;;;;22.40;100.00;98381.50;1679742;85;21034;-65
2021/09/01 10:45:50;;;;;;;3.17;1.25;;;;;;;22.48;100.00;98385.02;1647947;86;21836;-65
2021/09/01 10:48:18;;;;;;;1.07;0.98;;;;;;;22.54;100.00;98380.09;1647863;86;20912;-66
2021/09/01 10:50:50;;;;;;;4.17;0.90;;;;;;;22.59;100.00;98376.63;1647840;86;21557;-65
2021/09/01 10:53:29;;;;;;;0.93;0.90;;;;;;;22.59;100.00;98375.76;1648060;86;20952;-66
2021/09/01 10:56:05;;;;;;;1.12;0.82;;;;;;;22.55;100.00;98379.13;1642686;86;21574;-65
2021/09/01 10:58:41;;;;;;;1.02;0.80;;;;;;;22.47;100.00;98381.95;1677058;85;21485;-66
2021/09/01 11:01:16;;;;;;;3.83;1.75;;;;;;;22.40;100.00;98386.88;1643270;86;20944;-66
2021/09/01 11:04:01;;;;;;;2.45;1.60;;;;;;;22.32;100.00;98391.03;1677074;85;21035;-66
2021/09/01 11:06:27;;;;;;;2.37;1.60;;;;;;;22.28;100.00;98386.34;1647636;86;21545;-66
2021/09/01 11:09:07;;;;;;;2.17;1.60;;;;;;;22.25;100.00;98395.95;1648112;86;21003;-66
2021/09/01 11:11:51;;;;;;;2.22;1.92;;;;;;;22.20;100.00;98398.04;1648154;86;21839;-66
2021/09/01 11:14:39;;;;;;;4.72;1.70;;;;;;;22.14;100.00;98399.78;1647898;86;20893;-66
2021/09/01 11:17:11;;;;;;;3.95;1.87;;;;;;;22.02;100.00;98396.52;1647876;86;20908;-66
2021/09/01 11:19:42;;;;;;;;;;;;;;;21.90;100.00;98403.54;1650166;86;21454;-66
2021/09/01 11:22:17;;;;;;;7.25;2.12;;;;;;;21.78;100.00;98400.30;1643668;86;20127;-66
2021/09/01 11:25:03;;;;;;;4.72;1.80;;;;;;;21.67;100.00;98401.80;1642919;86;21173;-66
2021/09/01 11:27:31;;;;;;;22.13;15.20;;;;;;;21.57;100.00;98405.16;1653550;85;21122;-66
2021/09/01 11:30:10;;;;;;;52.10;37.35;;;;;;;21.52;100.00;98408.13;1607560;88;21572;-66
2021/09/01 11:32:40;;;;;;;12.55;9.78;;;;;;;21.47;100.00;98399.52;1647899;86;21051;-67
2021/09/01 11:35:20;;;;;;;7.12;4.90;;;;;;;21.44;100.00;98400.18;1647796;86;20952;-66
2021/09/01 11:37:46;;;;;;;9.18;6.00;;;;;;;21.40;100.00;98400.84;1646889;86;22089;-67
2021/09/01 11:40:15;;;;;;;4.53;3.40;;;;;;;21.40;100.00;98403.53;1634387;84;21483;-66
2021/09/01 11:42:43;;;;;;;4.58;2.98;;;;;;;21.35;100.00;98398.45;1681649;85;20972;-66
2021/09/01 11:45:11;;;;;;;6.70;3.45;;;;;;;21.30;100.00;98405.06;1598694;87;20988;-66